createdAt,value
2019-03-24T00:02:01.337Z,99346.48
2019-03-24T00:04:12.282Z,99346.97
2019-03-24T00:06:23.151Z,99348.73
2019-03-24T00:08:34.013Z,99344.94
2019-03-24T00:10:44.939Z,99345.76
2019-03-24T00:12:55.789Z,99341.37
2019-03-24T00:15:07.028Z,99345.29
2019-03-24T00:17:17.877Z,99342.86
2019-03-24T00:19:28.808Z,99346.66
2019-03-24T00:21:39.655Z,99345.91
2019-03-24T00:23:50.515Z,99337.00
2019-03-24T00:26:01.355Z,99343.89
2019-03-24T00:28:12.223Z,99337.47
2019-03-24T00:30:23.173Z,99340.16
2019-03-24T00:32:34.136Z,99338.09
2019-03-24T00:34:44.973Z,99332.17
2019-03-24T00:36:55.806Z,99329.39
2019-03-24T00:39:06.778Z,99325.77
2019-03-24T00:41:17.616Z,99322.91
2019-03-24T00:43:28.623Z,99325.84
2019-03-24T00:45:39.479Z,99315.39
2019-03-24T00:47:50.318Z,99321.28
2019-03-24T00:50:04.038Z,99322.16
2019-03-24T00:52:15.028Z,99316.88
2019-03-24T00:54:25.995Z,99324.17
2019-03-24T00:56:36.830Z,99321.64
2019-03-24T00:58:47.807Z,99320.75
2019-03-24T01:01:00.591Z,99318.56
2019-03-24T01:03:11.864Z,99313.41
2019-03-24T01:05:22.922Z,99319.84
2019-03-24T01:07:33.872Z,99315.59
2019-03-24T01:09:44.935Z,99319.08
2019-03-24T01:11:55.785Z,99311.46
2019-03-24T01:14:06.752Z,99308.17
2019-03-24T01:16:17.698Z,99308.75
2019-03-24T01:18:28.654Z,99307.18
2019-03-24T01:20:39.539Z,99305.51
2019-03-24T01:22:50.436Z,99301.15
2019-03-24T01:25:01.387Z,99301.27
2019-03-24T01:27:12.223Z,99293.98
2019-03-24T01:29:23.056Z,99292.45
2019-03-24T01:31:34.039Z,99290.55
2019-03-24T01:33:44.878Z,99292.98
2019-03-24T01:35:55.733Z,99293.20
2019-03-24T01:38:06.680Z,99291.17
2019-03-24T01:40:17.629Z,99286.63
2019-03-24T01:42:28.561Z,99288.03
2019-03-24T01:44:39.792Z,99286.42
2019-03-24T01:46:50.656Z,99285.96
2019-03-24T01:49:01.746Z,99281.77
2019-03-24T01:51:12.615Z,99279.98
2019-03-24T01:53:23.451Z,99278.58
2019-03-24T01:55:34.316Z,99278.91
2019-03-24T01:57:45.157Z,99274.72
2019-03-24T01:59:55.981Z,99277.39
2019-03-24T02:02:06.939Z,99276.13
2019-03-24T02:04:17.813Z,99264.25
2019-03-24T02:06:28.671Z,99269.74
2019-03-24T02:08:39.519Z,99268.17
2019-03-24T02:10:50.368Z,99266.94
2019-03-24T02:13:01.357Z,99267.38
2019-03-24T02:15:12.372Z,99266.04
2019-03-24T02:17:23.265Z,99259.16
2019-03-24T02:19:34.204Z,99260.05
2019-03-24T02:21:45.139Z,99259.55
2019-03-24T02:23:56.005Z,99253.90
2019-03-24T02:26:06.887Z,99257.66
2019-03-24T02:28:17.884Z,99250.27
2019-03-24T02:30:28.940Z,99249.81
2019-03-24T02:32:39.779Z,99249.03
2019-03-24T02:34:50.624Z,99249.14
2019-03-24T02:37:01.475Z,99250.81
2019-03-24T02:39:12.300Z,99255.53
2019-03-24T02:41:23.169Z,99257.70
2019-03-24T02:43:34.086Z,99256.03
2019-03-24T02:45:44.941Z,99252.72
2019-03-24T02:47:55.997Z,99258.30
2019-03-24T02:50:07.655Z,99254.22
2019-03-24T02:52:18.493Z,99259.58
2019-03-24T02:54:29.372Z,99257.66
2019-03-24T02:56:40.254Z,99258.98
2019-03-24T02:58:51.275Z,99252.56
2019-03-24T03:01:02.247Z,99253.99
2019-03-24T03:03:13.071Z,99254.19
2019-03-24T03:05:23.908Z,99252.59
2019-03-24T03:07:36.865Z,99256.81
2019-03-24T03:09:47.703Z,99260.03
2019-03-24T03:11:58.663Z,99259.98
2019-03-24T03:14:09.509Z,99256.91
2019-03-24T03:16:20.344Z,99261.56
2019-03-24T03:18:31.206Z,99258.15
2019-03-24T03:20:42.065Z,99253.80
2019-03-24T03:22:52.920Z,99260.28
2019-03-24T03:25:06.930Z,99262.98
2019-03-24T03:27:17.879Z,99256.07
2019-03-24T03:29:29.100Z,99254.83
2019-03-24T03:31:39.953Z,99257.01
2019-03-24T03:33:50.870Z,99265.70
2019-03-24T03:36:01.792Z,99265.81
2019-03-24T03:38:12.641Z,99270.14
2019-03-24T03:40:23.490Z,99265.00
2019-03-24T03:42:34.831Z,99268.82
2019-03-24T03:44:45.724Z,99264.88
2019-03-24T03:46:56.580Z,99269.52
2019-03-24T03:49:07.452Z,99263.05
2019-03-24T03:51:18.390Z,99262.64
2019-03-24T03:53:29.258Z,99264.28
2019-03-24T03:55:40.089Z,99259.58
2019-03-24T03:57:50.914Z,99260.56
2019-03-24T04:00:06.957Z,99264.16
2019-03-24T04:02:17.899Z,99258.27
2019-03-24T04:04:28.805Z,99255.36
2019-03-24T04:06:39.650Z,99255.48
2019-03-24T04:08:50.555Z,99250.13
2019-03-24T04:11:01.391Z,99246.27
2019-03-24T04:13:12.253Z,99240.73
2019-03-24T04:15:23.184Z,99246.77
2019-03-24T04:17:34.130Z,99239.50
2019-03-24T04:19:44.990Z,99243.83
2019-03-24T04:21:55.831Z,99235.73
2019-03-24T04:24:06.812Z,99237.45
2019-03-24T04:26:17.667Z,99234.93
2019-03-24T04:28:28.518Z,99232.77
2019-03-24T04:30:39.491Z,99227.49
2019-03-24T04:32:50.323Z,99232.98
2019-03-24T04:35:01.163Z,99230.55
2019-03-24T04:37:12.098Z,99234.44
2019-03-24T04:39:22.950Z,99230.19
2019-03-24T04:41:33.777Z,99227.22
2019-03-24T04:43:44.617Z,99231.52
2019-03-24T04:45:55.485Z,99234.14
2019-03-24T04:48:06.316Z,99235.42
2019-03-24T04:50:17.163Z,99234.58
2019-03-24T04:52:28.011Z,99232.49
2019-03-24T04:54:38.889Z,99240.23
2019-03-24T04:56:49.722Z,99242.28
2019-03-24T04:59:00.562Z,99235.55
2019-03-24T05:01:11.407Z,99239.00
2019-03-24T05:03:22.287Z,99247.19
2019-03-24T05:05:33.255Z,99246.34
2019-03-24T05:07:44.376Z,99243.78
2019-03-24T05:09:55.324Z,99247.59
2019-03-24T05:12:06.164Z,99251.80
2019-03-24T05:14:16.995Z,99247.59
2019-03-24T05:16:27.849Z,99248.06
2019-03-24T05:18:38.687Z,99246.70
2019-03-24T05:20:49.547Z,99252.32
2019-03-24T05:23:00.382Z,99250.16
2019-03-24T05:25:11.214Z,99240.36
2019-03-24T05:27:22.169Z,99242.61
2019-03-24T05:29:33.055Z,99244.34
2019-03-24T05:31:43.917Z,99242.22
2019-03-24T05:33:54.869Z,99240.09
2019-03-24T05:36:05.722Z,99240.52
2019-03-24T05:38:16.561Z,99242.22
2019-03-24T05:40:27.417Z,99245.98
2019-03-24T05:42:38.269Z,99249.19
2019-03-24T05:44:49.116Z,99248.17
2019-03-24T05:46:59.996Z,99245.52
2019-03-24T05:49:10.853Z,99245.04
2019-03-24T05:51:21.711Z,99255.18
2019-03-24T05:53:32.548Z,99254.61
2019-03-24T05:55:43.387Z,99253.58
2019-03-24T05:57:54.347Z,99252.91
2019-03-24T06:00:08.227Z,99247.55
2019-03-24T06:02:19.089Z,99246.97
2019-03-24T06:04:29.946Z,99247.31
2019-03-24T06:06:40.804Z,99257.16
2019-03-24T06:08:51.665Z,99254.63
2019-03-24T06:11:02.708Z,99250.82
2019-03-24T06:13:13.560Z,99252.91
2019-03-24T06:15:24.412Z,99251.63
2019-03-24T06:17:35.247Z,99253.94
2019-03-24T06:19:46.114Z,99244.61
2019-03-24T06:21:57.036Z,99245.28
2019-03-24T06:24:07.905Z,99241.80
2019-03-24T06:26:18.841Z,99236.44
2019-03-24T06:28:29.685Z,99237.50
2019-03-24T06:30:40.545Z,99239.50
2019-03-24T06:32:51.443Z,99244.53
2019-03-24T06:35:03.398Z,99243.72
2019-03-24T06:37:14.226Z,99241.21
2019-03-24T06:39:25.119Z,99235.59
2019-03-24T06:41:36.040Z,99235.06
2019-03-24T06:43:46.880Z,99229.63
2019-03-24T06:45:57.749Z,99228.81
2019-03-24T06:48:08.586Z,99233.02
2019-03-24T06:50:21.344Z,99227.47
2019-03-24T06:52:32.385Z,99231.00
2019-03-24T06:54:43.335Z,99231.49
2019-03-24T06:56:54.209Z,99227.75
2019-03-24T06:59:05.114Z,99221.54
2019-03-24T07:01:15.983Z,99219.74
2019-03-24T07:03:26.820Z,99217.49
2019-03-24T07:05:39.516Z,99215.25
2019-03-24T07:07:50.372Z,99215.70
2019-03-24T07:10:01.627Z,99217.09
2019-03-24T07:12:12.500Z,99217.42
2019-03-24T07:14:23.357Z,99209.69
2019-03-24T07:16:34.219Z,99216.94
2019-03-24T07:18:45.076Z,99214.72
2019-03-24T07:20:55.926Z,99220.30
2019-03-24T07:23:06.771Z,99211.43
2019-03-24T07:25:17.814Z,99209.80
2019-03-24T07:27:28.657Z,99208.14
2019-03-24T07:29:41.198Z,99211.05
2019-03-24T07:31:52.165Z,99209.45
2019-03-24T07:34:03.103Z,99211.68
2019-03-24T07:36:13.952Z,99208.09
2019-03-24T07:38:24.814Z,99209.06
2019-03-24T07:40:37.557Z,99200.22
2019-03-24T07:42:48.424Z,99195.41
2019-03-24T07:44:59.294Z,99199.56
2019-03-24T07:47:11.045Z,99199.20
2019-03-24T07:49:22.001Z,99199.20
2019-03-24T07:51:32.850Z,99192.19
2019-03-24T07:53:43.715Z,99196.19
2019-03-24T07:55:54.682Z,99193.42
2019-03-24T07:58:05.549Z,99192.86
2019-03-24T08:00:20.303Z,99187.31
2019-03-24T08:02:31.172Z,99187.31
2019-03-24T08:04:42.020Z,99184.28
2019-03-24T08:06:52.998Z,99184.48
2019-03-24T08:09:05.274Z,99190.08
2019-03-24T08:11:16.103Z,99185.29
2019-03-24T08:13:26.953Z,99188.56
2019-03-24T08:15:37.911Z,99187.75
2019-03-24T08:17:48.889Z,99185.36
2019-03-24T08:19:59.750Z,99185.00
2019-03-24T08:22:10.666Z,99185.41
2019-03-24T08:24:21.534Z,99182.62
2019-03-24T08:26:32.376Z,99180.09
2019-03-24T08:28:43.334Z,99180.09
2019-03-24T08:30:54.174Z,99177.12
2019-03-24T08:33:05.196Z,99175.27
2019-03-24T08:35:16.044Z,99175.92
2019-03-24T08:37:26.893Z,99179.75
2019-03-24T08:39:37.761Z,99177.95
2019-03-24T08:41:48.596Z,99174.67
2019-03-24T08:43:59.867Z,99171.59
2019-03-24T08:46:12.626Z,99178.23
2019-03-24T08:48:23.483Z,99173.91
2019-03-24T08:50:34.392Z,99167.92
2019-03-24T08:52:45.232Z,99167.22
2019-03-24T08:54:56.090Z,99159.28
2019-03-24T08:57:06.938Z,99161.89
2019-03-24T08:59:17.842Z,99154.85
2019-03-24T09:01:28.792Z,99155.00
2019-03-24T09:03:39.658Z,99151.74
2019-03-24T09:05:50.521Z,99154.36
2019-03-24T09:08:01.354Z,99148.33
2019-03-24T09:10:12.536Z,99147.77
2019-03-24T09:12:23.473Z,99144.77
2019-03-24T09:14:34.327Z,99137.74
2019-03-24T09:16:45.177Z,99133.33
2019-03-24T09:18:56.126Z,99119.73
2019-03-24T09:21:06.989Z,99125.50
2019-03-24T09:23:17.839Z,99119.45
2019-03-24T09:25:28.758Z,99120.12
2019-03-24T09:27:39.676Z,99109.75
2019-03-24T09:29:50.690Z,99113.66
2019-03-24T09:32:01.517Z,99113.66
2019-03-24T09:34:12.468Z,99110.88
2019-03-24T09:36:23.346Z,99114.22
2019-03-24T09:38:34.186Z,99105.59
2019-03-24T09:40:45.050Z,99107.74
2019-03-24T09:42:57.035Z,99108.09
2019-03-24T09:45:08.135Z,99112.55
2019-03-24T09:47:18.990Z,99106.27
2019-03-24T09:49:29.851Z,99097.69
2019-03-24T09:51:40.714Z,99097.55
2019-03-24T09:53:51.577Z,99099.63
2019-03-24T09:56:02.577Z,99098.27
2019-03-24T09:58:13.374Z,99093.98
2019-03-24T10:00:25.121Z,99090.62
2019-03-24T10:02:35.979Z,99087.37
2019-03-24T10:04:46.814Z,99079.56
2019-03-24T10:06:57.689Z,99081.91
2019-03-24T10:09:08.535Z,99082.72
2019-03-24T10:11:19.389Z,99080.72
2019-03-24T10:13:30.362Z,99071.81
2019-03-24T10:15:41.414Z,99065.44
2019-03-24T10:17:52.394Z,99065.03
2019-03-24T10:20:03.836Z,99068.83
2019-03-24T10:22:14.705Z,99062.50
2019-03-24T10:24:25.541Z,99064.37
2019-03-24T10:26:36.504Z,99061.61
2019-03-24T10:28:47.751Z,99058.02
2019-03-24T10:30:58.682Z,99054.16
2019-03-24T10:33:09.549Z,99048.67
2019-03-24T10:35:20.395Z,99051.21
2019-03-24T10:37:31.257Z,99054.81
2019-03-24T10:39:42.166Z,99057.36
2019-03-24T10:41:53.124Z,99057.72
2019-03-24T10:44:03.982Z,99051.95
2019-03-24T10:46:14.842Z,99050.04
2019-03-24T10:48:33.586Z,99052.44
2019-03-24T10:50:38.566Z,99054.95
2019-03-24T10:52:49.516Z,99056.70
2019-03-24T10:55:00.463Z,99052.14
2019-03-24T10:57:11.320Z,99051.30
2019-03-24T10:59:22.198Z,99058.13
2019-03-24T11:01:33.198Z,99049.98
2019-03-24T11:03:44.183Z,99051.79
2019-03-24T11:05:55.126Z,99053.00
2019-03-24T11:08:06.074Z,99052.20
2019-03-24T11:10:16.955Z,99050.19
2019-03-24T11:12:28.653Z,99050.53
2019-03-24T11:14:39.622Z,99046.69
2019-03-24T11:16:50.780Z,99043.92
2019-03-24T11:19:01.637Z,99041.84
2019-03-24T11:21:12.590Z,99047.59
2019-03-24T11:23:23.427Z,99043.71
2019-03-24T11:25:34.326Z,99044.19
2019-03-24T11:27:45.201Z,99040.59
2019-03-24T11:29:56.135Z,99039.63
2019-03-24T11:32:07.051Z,99037.35
2019-03-24T11:34:17.882Z,99035.08
2019-03-24T11:36:28.741Z,99035.32
2019-03-24T11:38:39.583Z,99035.17
2019-03-24T11:40:50.446Z,99037.30
2019-03-24T11:43:01.310Z,99030.61
2019-03-24T11:45:12.617Z,99028.71
2019-03-24T11:47:26.901Z,99031.69
2019-03-24T11:49:45.738Z,99036.14
2019-03-24T11:51:48.977Z,99024.52
2019-03-24T11:53:59.936Z,99017.47
2019-03-24T11:56:10.806Z,99021.73
2019-03-24T11:58:21.670Z,99016.04
2019-03-24T12:00:34.521Z,99015.68
2019-03-24T12:02:45.375Z,99015.55
2019-03-24T12:04:56.337Z,99004.45
2019-03-24T12:07:07.306Z,99005.66
2019-03-24T12:09:18.145Z,99005.53
2019-03-24T12:11:29.013Z,98997.88
2019-03-24T12:13:39.836Z,98995.13
2019-03-24T12:15:50.676Z,98990.06
2019-03-24T12:18:01.747Z,98985.52
2019-03-24T12:20:12.598Z,98977.28
2019-03-24T12:22:23.480Z,98968.81
2019-03-24T12:24:34.322Z,98963.66
2019-03-24T12:26:45.182Z,98954.72
2019-03-24T12:28:56.028Z,98960.70
2019-03-24T12:31:06.999Z,98954.02
2019-03-24T12:33:17.897Z,98951.23
2019-03-24T12:35:28.757Z,98954.72
2019-03-24T12:37:39.720Z,98951.01
2019-03-24T12:39:50.905Z,98946.59
2019-03-24T12:42:01.887Z,98947.80
2019-03-24T12:44:12.764Z,98949.34
2019-03-24T12:46:23.720Z,98945.62
2019-03-24T12:48:34.587Z,98944.11
2019-03-24T12:50:45.524Z,98943.86
2019-03-24T12:52:56.398Z,98938.33
2019-03-24T12:55:07.481Z,98948.70
2019-03-24T12:57:18.461Z,98938.50
2019-03-24T12:59:29.463Z,98935.28
2019-03-24T13:01:43.389Z,98936.84
2019-03-24T13:03:54.259Z,98933.86
2019-03-24T13:06:05.229Z,98926.21
2019-03-24T13:08:16.490Z,98924.69
2019-03-24T13:10:27.447Z,98931.63
2019-03-24T13:12:38.252Z,98923.03
2019-03-24T13:14:49.534Z,98928.75
2019-03-24T13:17:00.497Z,98919.39
2019-03-24T13:19:11.388Z,98920.67
2019-03-24T13:21:22.638Z,98918.27
2019-03-24T13:23:33.517Z,98915.39
2019-03-24T13:25:44.468Z,98919.84
2019-03-24T13:27:55.293Z,98913.40
2019-03-24T13:30:06.670Z,98915.65
2019-03-24T13:32:17.510Z,98916.73
2019-03-24T13:34:28.397Z,98917.92
2019-03-24T13:36:39.237Z,98915.75
2019-03-24T13:38:50.106Z,98915.95
2019-03-24T13:41:01.057Z,98915.09
2019-03-24T13:43:11.997Z,98912.11
2019-03-24T13:45:22.899Z,98917.36
2019-03-24T13:47:33.952Z,98904.84
2019-03-24T13:49:44.893Z,98905.07
2019-03-24T13:51:55.849Z,98907.70
2019-03-24T13:54:06.810Z,98903.53
2019-03-24T13:56:17.656Z,98901.74
2019-03-24T13:58:28.508Z,98899.25
2019-03-24T14:00:39.484Z,98896.02
2019-03-24T14:02:50.425Z,98892.66
2019-03-24T14:05:01.306Z,98896.81
2019-03-24T14:07:12.240Z,98893.27
2019-03-24T14:09:23.096Z,98893.84
2019-03-24T14:11:34.051Z,98895.16
2019-03-24T14:13:45.006Z,98898.31
2019-03-24T14:15:55.861Z,98903.34
2019-03-24T14:18:06.727Z,98906.52
2019-03-24T14:20:17.588Z,98905.78
2019-03-24T14:22:28.440Z,98901.77
2019-03-24T14:24:39.281Z,98902.38
2019-03-24T14:26:50.243Z,98900.62
2019-03-24T14:29:01.112Z,98899.14
2019-03-24T14:31:11.986Z,98899.88
2019-03-24T14:33:22.835Z,98894.16
2019-03-24T14:35:33.767Z,98895.59
2019-03-24T14:37:44.670Z,98901.09
2019-03-24T14:39:55.518Z,98895.32
2019-03-24T14:42:06.501Z,98895.33
2019-03-24T14:44:17.535Z,98891.70
2019-03-24T14:46:28.446Z,98898.36
2019-03-24T14:48:39.298Z,98897.31
2019-03-24T14:50:54.853Z,98904.28
2019-03-24T14:53:03.037Z,98906.08
2019-03-24T14:55:13.867Z,98904.19
2019-03-24T14:57:24.838Z,98911.94
2019-03-24T14:59:35.771Z,98909.77
2019-03-24T15:01:46.852Z,98911.44
2019-03-24T15:03:57.727Z,98908.20
2019-03-24T15:06:08.596Z,98909.48
2019-03-24T15:08:21.459Z,98911.73
2019-03-24T15:10:32.791Z,98899.48
2019-03-24T15:12:43.675Z,98903.47
2019-03-24T15:14:54.574Z,98910.51
2019-03-24T15:17:05.547Z,98905.31
2019-03-24T15:19:16.481Z,98910.64
2019-03-24T15:21:27.463Z,98910.97
2019-03-24T15:23:38.298Z,98907.75
2019-03-24T15:25:49.277Z,98910.66
2019-03-24T15:28:00.154Z,98913.06
2019-03-24T15:30:11.099Z,98913.41
2019-03-24T15:32:22.078Z,98905.50
2019-03-24T15:34:33.107Z,98907.41
2019-03-24T15:36:43.943Z,98905.00
2019-03-24T15:38:54.867Z,98911.20
2019-03-24T15:41:05.828Z,98908.41
2019-03-24T15:43:16.710Z,98913.50
2019-03-24T15:45:27.593Z,98915.83
2019-03-24T15:47:38.555Z,98920.80
2019-03-24T15:49:49.459Z,98925.60
2019-03-24T15:52:00.297Z,98922.21
2019-03-24T15:54:13.328Z,98918.48
2019-03-24T15:56:24.020Z,98925.86
2019-03-24T15:58:34.917Z,98918.56
2019-03-24T16:00:46.279Z,98919.03
2019-03-24T16:02:57.152Z,98919.98
2019-03-24T16:05:08.223Z,98920.66
2019-03-24T16:07:19.183Z,98924.44
2019-03-24T16:09:30.063Z,98928.72
2019-03-24T16:11:41.009Z,98928.77
2019-03-24T16:13:51.926Z,98925.87
2019-03-24T16:16:02.869Z,98926.08
2019-03-24T16:18:13.820Z,98926.55
2019-03-24T16:20:24.697Z,98930.43
2019-03-24T16:22:35.551Z,98932.41
2019-03-24T16:24:46.400Z,98927.19
2019-03-24T16:26:57.456Z,98928.48
2019-03-24T16:29:08.428Z,98928.22
2019-03-24T16:31:19.389Z,98928.65
2019-03-24T16:33:30.225Z,98927.73
2019-03-24T16:35:41.084Z,98932.92
2019-03-24T16:37:51.922Z,98931.17
2019-03-24T16:40:06.555Z,98936.63
2019-03-24T16:42:17.412Z,98941.56
2019-03-24T16:44:28.275Z,98940.84
2019-03-24T16:46:39.260Z,98941.52
2019-03-24T16:48:50.098Z,98936.78
2019-03-24T16:51:00.968Z,98936.23
2019-03-24T16:53:11.947Z,98939.32
2019-03-24T16:55:22.785Z,98938.68
2019-03-24T16:57:33.866Z,98939.97
2019-03-24T16:59:44.693Z,98937.83
2019-03-24T17:01:55.670Z,98933.09
2019-03-24T17:04:06.643Z,98936.41
2019-03-24T17:06:17.554Z,98933.80
2019-03-24T17:08:28.441Z,98943.66
2019-03-24T17:10:39.327Z,98944.63
2019-03-24T17:12:50.382Z,98947.48
2019-03-24T17:15:01.259Z,98952.22
2019-03-24T17:17:12.094Z,98952.52
2019-03-24T17:19:23.121Z,98950.89
2019-03-24T17:21:33.996Z,98951.20
2019-03-24T17:23:44.991Z,98945.05
2019-03-24T17:25:55.858Z,98952.13
2019-03-24T17:28:06.717Z,98954.85
2019-03-24T17:30:17.669Z,98957.94
2019-03-24T17:32:28.615Z,98958.01
2019-03-24T17:34:39.596Z,98952.42
2019-03-24T17:36:50.484Z,98951.66
2019-03-24T17:39:01.309Z,98951.88
2019-03-24T17:41:12.200Z,98954.56
2019-03-24T17:43:23.145Z,98957.09
2019-03-24T17:45:34.248Z,98971.61
2019-03-24T17:47:45.250Z,98971.61
2019-03-24T17:49:56.101Z,98975.13
2019-03-24T17:52:07.018Z,98976.00
2019-03-24T17:54:17.863Z,98975.60
2019-03-24T17:56:28.733Z,98982.05
2019-03-24T17:58:39.633Z,98983.42
2019-03-24T18:00:52.415Z,98986.51
2019-03-24T18:03:03.391Z,98985.56
2019-03-24T18:05:14.658Z,98983.06
2019-03-24T18:07:25.558Z,98988.39
2019-03-24T18:09:36.596Z,98988.56
2019-03-24T18:11:47.615Z,98991.34
2019-03-24T18:13:58.489Z,98993.31
2019-03-24T18:16:09.349Z,98995.34
2019-03-24T18:18:20.337Z,98997.70
2019-03-24T18:20:32.724Z,98993.78
2019-03-24T18:22:43.695Z,98998.81
2019-03-24T18:24:54.661Z,98992.28
2019-03-24T18:27:05.706Z,98988.73
2019-03-24T18:29:16.584Z,98993.19
2019-03-24T18:31:27.439Z,98995.80
2019-03-24T18:33:38.434Z,99001.81
2019-03-24T18:35:49.385Z,99001.81
2019-03-24T18:38:00.331Z,99003.66
2019-03-24T18:40:11.622Z,99007.75
2019-03-24T18:42:22.578Z,99009.69
2019-03-24T18:44:33.566Z,99011.83
2019-03-24T18:46:44.438Z,99013.44
2019-03-24T18:48:55.988Z,99012.47
2019-03-24T18:51:06.903Z,99012.94
2019-03-24T18:53:17.854Z,99013.94
2019-03-24T18:55:28.949Z,99012.64
2019-03-24T18:57:39.896Z,99012.64
2019-03-24T18:59:50.829Z,99015.48
2019-03-24T19:02:01.732Z,99011.74
2019-03-24T19:04:12.695Z,99017.48
2019-03-24T19:06:23.754Z,99015.08
2019-03-24T19:08:34.698Z,99014.69
2019-03-24T19:10:45.603Z,99020.94
2019-03-24T19:12:56.442Z,99017.86
2019-03-24T19:15:09.267Z,99008.80
2019-03-24T19:17:20.230Z,99009.73
2019-03-24T19:19:31.180Z,99016.98
2019-03-24T19:21:42.109Z,99012.67
2019-03-24T19:23:53.060Z,99012.11
2019-03-24T19:26:04.109Z,99006.52
2019-03-24T19:28:14.930Z,99003.62
2019-03-24T19:30:35.510Z,99000.64
2019-03-24T19:32:46.533Z,98998.47
2019-03-24T19:34:57.481Z,99007.32
2019-03-24T19:37:08.506Z,99004.95
2019-03-24T19:39:19.556Z,99009.05
2019-03-24T19:41:30.523Z,99009.05
2019-03-24T19:43:41.477Z,99011.26
2019-03-24T19:45:52.377Z,99006.61
2019-03-24T19:48:03.356Z,99008.45
2019-03-24T19:50:14.430Z,99006.00
2019-03-24T19:52:25.494Z,99006.36
2019-03-24T19:54:36.338Z,99010.80
2019-03-24T19:56:47.228Z,99012.05
2019-03-24T19:58:58.181Z,99004.03
2019-03-24T20:01:09.098Z,99004.93
2019-03-24T20:03:19.971Z,98996.38
2019-03-24T20:05:30.920Z,98998.31
2019-03-24T20:07:47.937Z,98998.77
2019-03-24T20:09:56.467Z,98994.30
2019-03-24T20:12:07.354Z,98999.61
2019-03-24T20:14:18.219Z,99003.14
2019-03-24T20:16:29.060Z,98994.47
2019-03-24T20:18:40.037Z,98998.16
2019-03-24T20:20:52.134Z,99004.20
2019-03-24T20:23:03.330Z,99007.73
2019-03-24T20:25:14.329Z,99003.92
2019-03-24T20:27:26.002Z,98997.42
2019-03-24T20:29:37.263Z,98996.28
2019-03-24T20:31:48.244Z,98993.67
2019-03-24T20:33:59.185Z,98991.53
2019-03-24T20:36:10.142Z,98992.69
2019-03-24T20:38:21.016Z,98991.85
2019-03-24T20:40:31.969Z,98987.48
2019-03-24T20:42:42.971Z,98985.75
2019-03-24T20:44:53.826Z,98985.14
2019-03-24T20:47:04.706Z,98981.48
2019-03-24T20:49:15.585Z,98985.61
2019-03-24T20:51:26.540Z,98984.09
2019-03-24T20:53:37.537Z,98988.30
2019-03-24T20:55:48.395Z,98991.47
2019-03-24T20:57:59.286Z,98988.09
2019-03-24T21:00:11.134Z,98978.92
2019-03-24T21:02:21.987Z,98968.52
2019-03-24T21:04:32.871Z,98968.88
2019-03-24T21:06:43.825Z,98971.80
2019-03-24T21:08:54.697Z,98973.00
2019-03-24T21:11:05.618Z,98972.63
2019-03-24T21:13:16.465Z,98977.46
2019-03-24T21:15:27.441Z,98978.52
2019-03-24T21:17:38.397Z,98980.80
2019-03-24T21:19:49.282Z,98980.75
2019-03-24T21:22:00.130Z,98978.52
2019-03-24T21:24:11.112Z,98976.94
2019-03-24T21:26:21.961Z,98980.37
2019-03-24T21:28:32.809Z,98977.62
2019-03-24T21:30:43.679Z,98981.30
2019-03-24T21:32:54.678Z,98983.59
2019-03-24T21:35:06.139Z,98981.73
2019-03-24T21:37:17.095Z,98977.46
2019-03-24T21:39:27.967Z,98982.30
2019-03-24T21:41:38.903Z,98986.73
2019-03-24T21:43:49.756Z,98993.32
2019-03-24T21:46:00.621Z,98985.52
2019-03-24T21:48:11.474Z,98985.30
2019-03-24T21:50:22.333Z,98983.80
2019-03-24T21:52:33.309Z,98984.36
2019-03-24T21:54:44.266Z,98982.50
2019-03-24T21:56:55.134Z,98985.98
2019-03-24T21:59:06.087Z,98984.15
2019-03-24T22:01:17.058Z,98982.50
2019-03-24T22:03:27.901Z,98986.09
2019-03-24T22:05:38.777Z,98982.59
2019-03-24T22:07:49.733Z,98971.59
2019-03-24T22:10:00.588Z,98980.70
2019-03-24T22:12:11.573Z,98980.70
2019-03-24T22:14:22.603Z,98978.17
2019-03-24T22:16:33.452Z,98978.70
2019-03-24T22:18:44.313Z,98980.68
2019-03-24T22:20:55.162Z,98978.34
2019-03-24T22:23:06.150Z,98974.73
2019-03-24T22:25:17.074Z,98976.80
2019-03-24T22:27:27.952Z,98975.42
2019-03-24T22:29:38.893Z,98975.05
2019-03-24T22:31:49.757Z,98984.20
2019-03-24T22:34:00.589Z,98985.59
2019-03-24T22:36:11.547Z,98973.21
2019-03-24T22:38:22.503Z,98978.00
2019-03-24T22:40:33.572Z,98976.56
2019-03-24T22:42:44.531Z,98978.00
2019-03-24T22:44:55.405Z,98968.76
2019-03-24T22:47:06.264Z,98976.80
2019-03-24T22:49:17.149Z,98968.59
2019-03-24T22:51:27.981Z,98968.52
2019-03-24T22:53:38.840Z,98970.28
2019-03-24T22:55:49.702Z,98970.45
2019-03-24T22:58:00.594Z,98971.34
2019-03-24T23:00:14.168Z,98969.20
2019-03-24T23:02:25.108Z,98969.75
2019-03-24T23:04:35.963Z,98972.41
2019-03-24T23:06:46.910Z,98973.11
2019-03-24T23:08:57.778Z,98967.22
2019-03-24T23:11:08.717Z,98964.84
2019-03-24T23:13:19.566Z,98969.67
2019-03-24T23:15:30.425Z,98967.28
2019-03-24T23:17:41.377Z,98966.06
2019-03-24T23:19:52.354Z,98964.16
2019-03-24T23:22:03.214Z,98959.66
2019-03-24T23:24:15.654Z,98963.23
2019-03-24T23:26:26.707Z,98964.07
2019-03-24T23:28:37.552Z,98958.09
2019-03-24T23:30:48.517Z,98957.26
2019-03-24T23:32:59.355Z,98955.67
2019-03-24T23:35:10.312Z,98953.36
2019-03-24T23:37:21.171Z,98956.56
2019-03-24T23:39:32.054Z,98957.77
2019-03-24T23:41:42.892Z,98953.97
2019-03-24T23:43:53.736Z,98941.81
2019-03-24T23:46:04.704Z,98945.44
2019-03-24T23:48:15.556Z,98942.70
2019-03-24T23:50:26.422Z,98940.06
2019-03-24T23:52:37.256Z,98940.76
2019-03-24T23:54:48.123Z,98937.23
2019-03-24T23:56:58.992Z,98936.61
2019-03-24T23:59:09.927Z,98934.39
